createdAt,value
2022-09-24T05:01:25.646Z,100184.22
2022-09-24T05:03:52.248Z,100185.56
2022-09-24T05:06:18.912Z,100190.69
2022-09-24T05:08:45.452Z,100191.03
2022-09-24T05:11:13.162Z,100179.34
2022-09-24T05:13:39.684Z,100184.22
2022-09-24T05:16:06.464Z,100187.47
2022-09-24T05:18:33.027Z,100191.28
2022-09-24T05:20:59.637Z,100185.34
2022-09-24T05:23:26.090Z,100190.47
2022-09-24T05:26:10.954Z,100178.59
2022-09-24T05:28:38.281Z,100183.16
2022-09-24T05:31:04.917Z,100184.53
2022-09-24T05:33:31.564Z,100190.75
2022-09-24T05:35:58.154Z,100186.97
2022-09-24T05:38:24.689Z,100190.22
2022-09-24T05:40:51.321Z,100185.44
2022-09-24T05:43:21.582Z,100190.06
2022-09-24T05:45:50.180Z,100188.78
2022-09-24T05:48:16.976Z,100194.53
2022-09-24T05:50:43.586Z,100197.56
2022-09-24T05:53:10.496Z,100195.06
2022-09-24T05:55:36.982Z,100182.25
2022-09-24T05:58:09.378Z,100189.09
2022-09-24T06:00:36.392Z,100191.28
2022-09-24T06:03:11.068Z,100196.22
2022-09-24T06:05:37.644Z,100200.03
2022-09-24T06:08:04.707Z,100194.19
2022-09-24T06:10:31.656Z,100195.25
2022-09-24T06:12:58.617Z,100200.13
2022-09-24T06:15:27.268Z,100202.88
2022-09-24T06:17:54.931Z,100193.09
2022-09-24T06:20:22.424Z,100191.22
2022-09-24T06:22:49.356Z,100189.31
2022-09-24T06:25:15.999Z,100192.03
2022-09-24T06:27:42.532Z,100195.53
2022-09-24T06:30:09.215Z,100199.44
2022-09-24T06:32:35.691Z,100198.56
2022-09-24T06:35:02.231Z,100190.97
2022-09-24T06:37:28.707Z,100188.75
2022-09-24T06:39:55.408Z,100193.09
2022-09-24T06:42:21.942Z,100199.06
2022-09-24T06:44:48.472Z,100195.88
2022-09-24T06:47:15.080Z,100191.47
2022-09-24T06:49:41.761Z,100193.16
2022-09-24T06:52:08.341Z,100192.00
2022-09-24T06:54:34.759Z,100194.25
2022-09-24T06:57:01.599Z,100193.63
2022-09-24T06:59:28.505Z,100196.28
2022-09-24T07:01:55.093Z,100198.41
2022-09-24T07:04:21.705Z,100194.03
2022-09-24T07:07:06.949Z,100194.56
2022-09-24T07:09:33.717Z,100199.44
2022-09-24T07:12:04.824Z,100195.06
2022-09-24T07:14:31.310Z,100195.59
2022-09-24T07:16:57.849Z,100192.31
2022-09-24T07:19:24.309Z,100201.53
2022-09-24T07:21:50.897Z,100193.13
2022-09-24T07:24:17.340Z,100200.88
2022-09-24T07:26:43.831Z,100192.03
2022-09-24T07:29:10.377Z,100191.75
2022-09-24T07:31:37.401Z,100189.75
2022-09-24T07:34:07.263Z,100189.34
2022-09-24T07:36:33.776Z,100192.28
2022-09-24T07:39:01.502Z,100203.72
2022-09-24T07:41:28.013Z,100195.56
2022-09-24T07:43:56.173Z,100207.00
2022-09-24T07:46:23.934Z,100212.16
2022-09-24T07:48:54.341Z,100205.41
2022-09-24T07:51:20.830Z,100213.28
2022-09-24T07:53:47.375Z,100214.13
2022-09-24T07:56:13.745Z,100206.66
2022-09-24T07:58:40.490Z,100205.50
2022-09-24T08:01:07.251Z,100209.59
2022-09-24T08:03:33.851Z,100209.84
2022-09-24T08:06:02.058Z,100210.22
2022-09-24T08:08:28.567Z,100217.78
2022-09-24T08:10:55.129Z,100217.34
2022-09-24T08:13:25.366Z,100224.03
2022-09-24T08:16:00.645Z,100222.72
2022-09-24T08:18:29.410Z,100221.91
2022-09-24T08:20:55.926Z,100224.63
2022-09-24T08:23:22.379Z,100230.13
2022-09-24T08:25:49.131Z,100218.13
2022-09-24T08:28:17.202Z,100218.97
2022-09-24T08:30:44.277Z,100221.41
2022-09-24T08:33:10.854Z,100223.84
2022-09-24T08:35:40.152Z,100214.97
2022-09-24T08:38:07.094Z,100221.16
2022-09-24T08:40:39.693Z,100224.41
2022-09-24T08:43:26.069Z,100227.97
2022-09-24T08:46:16.237Z,100223.34
2022-09-24T08:48:49.302Z,100232.31
2022-09-24T08:51:19.237Z,100230.16
2022-09-24T08:53:55.056Z,100233.41
2022-09-24T08:56:27.246Z,100232.38
2022-09-24T08:58:59.858Z,100232.34
2022-09-24T09:01:41.294Z,100235.63
2022-09-24T09:04:26.181Z,100238.34
2022-09-24T09:07:08.032Z,100241.59
2022-09-24T09:09:54.134Z,100255.19
2022-09-24T09:12:40.816Z,100250.00
2022-09-24T09:15:13.320Z,100254.63
2022-09-24T09:17:47.286Z,100253.56
2022-09-24T09:20:21.725Z,100264.44
2022-09-24T09:22:51.311Z,100261.72
2022-09-24T09:25:24.706Z,100256.00
2022-09-24T09:28:05.271Z,100257.34
2022-09-24T09:30:43.693Z,100249.19
2022-09-24T09:33:20.725Z,100251.63
2022-09-24T09:36:15.041Z,100246.44
2022-09-24T09:38:58.243Z,100255.69
2022-09-24T09:42:02.636Z,100250.19
2022-09-24T09:44:30.918Z,100258.94
2022-09-24T09:47:07.172Z,100257.00
2022-09-24T09:49:38.631Z,100258.06
2022-09-24T09:52:15.297Z,100247.66
2022-09-24T09:54:42.127Z,100252.31
2022-09-24T09:57:18.200Z,100247.38
2022-09-24T09:59:53.625Z,100253.34
2022-09-24T10:02:35.471Z,100255.22
2022-09-24T10:05:04.293Z,100257.72
2022-09-24T10:07:31.789Z,100253.88
2022-09-24T10:10:26.137Z,100242.66
2022-09-24T10:13:13.820Z,100246.25
2022-09-24T10:15:56.710Z,100242.94
2022-09-24T10:18:36.238Z,100244.59
2022-09-24T10:21:12.076Z,100251.94
2022-09-24T10:23:49.769Z,100253.28
2022-09-24T10:26:16.465Z,100245.13
2022-09-24T10:29:08.041Z,100247.28
2022-09-24T10:31:37.907Z,100248.91
2022-09-24T10:34:18.347Z,100252.97
2022-09-24T10:37:05.036Z,100255.38
2022-09-24T10:39:33.870Z,100246.16
2022-09-24T10:42:00.401Z,100246.25
2022-09-24T10:44:35.992Z,100255.38
2022-09-24T10:47:04.643Z,100255.44
2022-09-24T10:49:49.221Z,100250.22
2022-09-24T10:52:52.713Z,100255.94
2022-09-24T10:55:55.648Z,100246.72
2022-09-24T10:58:28.086Z,100253.03
2022-09-24T11:01:19.442Z,100259.56
2022-09-24T11:04:10.537Z,100252.19
2022-09-24T11:06:58.193Z,100250.06
2022-09-24T11:09:43.945Z,100245.97
2022-09-24T11:12:39.826Z,100238.63
2022-09-24T11:15:21.983Z,100244.38
2022-09-24T11:18:11.485Z,100243.06
2022-09-24T11:20:42.005Z,100237.63
2022-09-24T11:23:20.748Z,100247.13
2022-09-24T11:25:47.270Z,100245.22
2022-09-24T11:28:16.966Z,100246.16
2022-09-24T11:31:05.110Z,100247.38
2022-09-24T11:33:34.700Z,100245.22
2022-09-24T11:36:10.298Z,100244.13
2022-09-24T11:39:01.393Z,100238.13
2022-09-24T11:41:49.830Z,100244.13
2022-09-24T11:44:27.187Z,100247.97
2022-09-24T11:47:32.921Z,100245.19
2022-09-24T11:50:15.615Z,100245.81
2022-09-24T11:52:48.090Z,100247.41
2022-09-24T11:55:31.784Z,100238.16
2022-09-24T11:58:18.058Z,100241.94
2022-09-24T12:00:57.513Z,100232.97
2022-09-24T12:03:35.147Z,100237.91
2022-09-24T12:06:10.263Z,100235.44
2022-09-24T12:08:44.233Z,100237.63
2022-09-24T12:11:18.768Z,100239.78
2022-09-24T12:13:52.322Z,100236.75
2022-09-24T12:16:24.283Z,100238.66
2022-09-24T12:19:24.131Z,100228.25
2022-09-24T12:21:53.048Z,100236.44
2022-09-24T12:24:52.733Z,100230.06
2022-09-24T12:27:38.749Z,100233.88
2022-09-24T12:30:40.200Z,100231.44
2022-09-24T12:33:09.436Z,100227.38
2022-09-24T12:35:42.730Z,100235.25
2022-09-24T12:38:21.015Z,100241.25
2022-09-24T12:41:11.996Z,100242.28
2022-09-24T12:43:53.743Z,100242.84
2022-09-24T12:46:24.763Z,100237.94
2022-09-24T12:48:54.333Z,100232.50
2022-09-24T12:51:22.726Z,100237.16
2022-09-24T12:54:05.831Z,100226.50
2022-09-24T12:56:32.706Z,100225.97
2022-09-24T12:58:59.246Z,100228.69
2022-09-24T13:01:25.838Z,100230.13
2022-09-24T13:04:13.957Z,100227.53
2022-09-24T13:06:41.549Z,100235.19
2022-09-24T13:09:44.359Z,100227.22
2022-09-24T13:12:14.468Z,100224.88
2022-09-24T13:14:46.986Z,100227.31
2022-09-24T13:17:15.842Z,100224.88
2022-09-24T13:19:44.998Z,100229.50
2022-09-24T13:22:23.085Z,100226.50
2022-09-24T13:24:52.801Z,100236.31
2022-09-24T13:27:37.841Z,100225.16
2022-09-24T13:30:43.100Z,100235.19
2022-09-24T13:33:12.662Z,100224.91
2022-09-24T13:35:48.162Z,100225.19
2022-09-24T13:38:14.906Z,100232.84
2022-09-24T13:40:48.675Z,100228.50
2022-09-24T13:43:25.314Z,100230.41
2022-09-24T13:45:52.752Z,100235.06
2022-09-24T13:48:33.527Z,100228.25
2022-09-24T13:51:03.388Z,100223.66
2022-09-24T13:53:32.342Z,100230.22
2022-09-24T13:56:02.372Z,100230.22
2022-09-24T13:58:38.783Z,100226.16
2022-09-24T14:01:13.217Z,100232.66
2022-09-24T14:03:41.364Z,100225.63
2022-09-24T14:06:17.002Z,100229.97
2022-09-24T14:08:46.318Z,100229.19
2022-09-24T14:11:21.807Z,100238.16
2022-09-24T14:13:48.390Z,100231.94
2022-09-24T14:16:18.608Z,100230.28
2022-09-24T14:18:45.977Z,100228.94
2022-09-24T14:21:24.623Z,100233.84
2022-09-24T14:23:57.290Z,100225.69
2022-09-24T14:26:26.400Z,100232.22
2022-09-24T14:28:54.199Z,100237.69
2022-09-24T14:31:20.916Z,100234.94
2022-09-24T14:33:47.575Z,100235.25
2022-09-24T14:36:15.147Z,100236.03
2022-09-24T14:38:53.902Z,100233.56
2022-09-24T14:41:25.032Z,100229.78
2022-09-24T14:43:56.287Z,100231.66
2022-09-24T14:46:32.758Z,100235.50
2022-09-24T14:49:18.814Z,100237.38
2022-09-24T14:51:59.721Z,100226.22
2022-09-24T14:54:36.952Z,100234.16
2022-09-24T14:57:09.800Z,100219.72
2022-09-24T14:59:38.062Z,100226.28
2022-09-24T15:02:24.962Z,100222.41
2022-09-24T15:04:55.466Z,100224.06
2022-09-24T15:07:26.134Z,100220.84
2022-09-24T15:10:01.105Z,100225.44
2022-09-24T15:12:31.601Z,100222.44
2022-09-24T15:15:04.117Z,100217.00
2022-09-24T15:17:33.164Z,100217.56
2022-09-24T15:20:00.408Z,100223.56
2022-09-24T15:22:28.933Z,100215.41
2022-09-24T15:25:01.856Z,100223.00
2022-09-24T15:27:30.128Z,100221.38
2022-09-24T15:29:59.644Z,100219.22
2022-09-24T15:32:31.695Z,100216.22
2022-09-24T15:34:58.364Z,100210.81
2022-09-24T15:37:27.073Z,100214.88
2022-09-24T15:39:57.508Z,100223.06
2022-09-24T15:42:26.634Z,100224.13
2022-09-24T15:44:54.744Z,100224.16
2022-09-24T15:47:21.489Z,100216.53
2022-09-24T15:49:48.090Z,100218.19
2022-09-24T15:52:25.427Z,100218.72
2022-09-24T15:54:53.237Z,100217.34
2022-09-24T15:57:19.740Z,100218.75
2022-09-24T15:59:46.165Z,100215.94
2022-09-24T16:02:29.488Z,100220.91
2022-09-24T16:05:02.709Z,100219.56
2022-09-24T16:07:30.269Z,100218.19
2022-09-24T16:09:56.626Z,100221.13
2022-09-24T16:12:28.160Z,100221.19
2022-09-24T16:14:59.133Z,100224.75
2022-09-24T16:17:29.832Z,100231.00
2022-09-24T16:19:56.381Z,100224.19
2022-09-24T16:22:22.821Z,100231.22
2022-09-24T16:24:49.373Z,100230.44
2022-09-24T16:27:15.845Z,100236.13
2022-09-24T16:29:42.385Z,100230.19
2022-09-24T16:32:08.824Z,100235.03
2022-09-24T16:34:35.364Z,100233.97
2022-09-24T16:37:01.897Z,100235.31
2022-09-24T16:39:28.421Z,100244.84
2022-09-24T16:41:54.906Z,100234.50
2022-09-24T16:44:21.422Z,100230.47
2022-09-24T16:46:47.997Z,100231.78
2022-09-24T16:49:14.523Z,100239.44
2022-09-24T16:51:41.027Z,100236.44
2022-09-24T16:54:07.700Z,100243.75
2022-09-24T16:56:34.642Z,100246.72
2022-09-24T16:59:01.153Z,100246.44
2022-09-24T17:01:27.823Z,100245.41
2022-09-24T17:03:56.213Z,100248.06
2022-09-24T17:06:29.150Z,100245.34
2022-09-24T17:09:19.108Z,100244.50
2022-09-24T17:11:49.389Z,100238.81
2022-09-24T17:14:17.692Z,100239.34
2022-09-24T17:16:44.282Z,100243.69
2022-09-24T17:19:11.861Z,100244.31
2022-09-24T17:21:40.859Z,100251.31
2022-09-24T17:24:07.962Z,100249.94
2022-09-24T17:26:34.748Z,100253.16
2022-09-24T17:29:01.571Z,100243.94
2022-09-24T17:31:28.544Z,100255.91
2022-09-24T17:33:56.570Z,100255.06
2022-09-24T17:36:23.900Z,100255.59
2022-09-24T17:38:51.963Z,100252.31
2022-09-24T17:41:19.307Z,100252.59
2022-09-24T17:43:45.795Z,100252.88
2022-09-24T17:46:18.057Z,100257.25
2022-09-24T17:48:46.164Z,100255.03
2022-09-24T17:51:22.880Z,100252.31
2022-09-24T17:53:51.704Z,100254.22
2022-09-24T17:56:19.229Z,100253.94
2022-09-24T17:58:49.947Z,100257.75
2022-09-24T18:01:25.257Z,100258.84
2022-09-24T18:03:57.831Z,100254.75
2022-09-24T18:06:29.396Z,100252.56
2022-09-24T18:09:00.029Z,100260.72
2022-09-24T18:11:31.537Z,100260.44
2022-09-24T18:14:01.392Z,100249.84
2022-09-24T18:16:31.183Z,100252.81
2022-09-24T18:19:02.134Z,100258.25
2022-09-24T18:21:29.600Z,100262.56
2022-09-24T18:23:58.120Z,100266.84
2022-09-24T18:26:27.317Z,100270.94
2022-09-24T18:29:01.576Z,100267.13
2022-09-24T18:31:29.613Z,100269.25
2022-09-24T18:34:06.199Z,100268.44
2022-09-24T18:36:38.615Z,100272.28
2022-09-24T18:39:06.959Z,100268.41
2022-09-24T18:41:34.808Z,100270.53
2022-09-24T18:44:01.857Z,100269.19
2022-09-24T18:46:30.555Z,100264.81
2022-09-24T18:48:58.704Z,100264.03
2022-09-24T18:51:28.340Z,100259.41
2022-09-24T18:53:57.656Z,100261.31
2022-09-24T18:56:24.612Z,100259.94
2022-09-24T18:59:05.906Z,100260.78
2022-09-24T19:01:35.422Z,100255.31
2022-09-24T19:04:02.258Z,100263.69
2022-09-24T19:06:30.598Z,100255.28
2022-09-24T19:08:57.277Z,100256.88
2022-09-24T19:11:23.925Z,100254.69
2022-09-24T19:13:51.668Z,100253.81
2022-09-24T19:16:19.578Z,100251.66
2022-09-24T19:18:47.416Z,100249.81
2022-09-24T19:21:15.664Z,100253.03
2022-09-24T19:23:47.819Z,100253.31
2022-09-24T19:26:20.600Z,100255.44
2022-09-24T19:28:50.965Z,100261.41
2022-09-24T19:31:20.252Z,100264.34
2022-09-24T19:33:47.108Z,100257.81
2022-09-24T19:36:13.845Z,100261.63
2022-09-24T19:38:41.274Z,100265.34
2022-09-24T19:41:13.580Z,100265.19
2022-09-24T19:43:42.879Z,100263.78
2022-09-24T19:46:12.086Z,100260.53
2022-09-24T19:48:40.435Z,100258.31
2022-09-24T19:51:12.465Z,100259.38
2022-09-24T19:53:39.143Z,100252.84
2022-09-24T19:56:07.322Z,100256.66
2022-09-24T19:58:34.479Z,100263.41
2022-09-24T20:01:06.592Z,100255.28
2022-09-24T20:03:34.819Z,100262.03
2022-09-24T20:06:07.648Z,100251.25
2022-09-24T20:08:34.206Z,100249.00
2022-09-24T20:11:05.056Z,100244.91
2022-09-24T20:13:32.356Z,100249.25
2022-09-24T20:16:01.762Z,100247.84
2022-09-24T20:18:28.757Z,100248.09
2022-09-24T20:20:55.536Z,100241.81
2022-09-24T20:23:23.583Z,100247.50
2022-09-24T20:26:13.516Z,100247.81
2022-09-24T20:28:40.374Z,100254.25
2022-09-24T20:31:11.411Z,100246.44
2022-09-24T20:33:40.339Z,100243.91
2022-09-24T20:36:15.192Z,100254.75
2022-09-24T20:38:45.050Z,100247.44
2022-09-24T20:41:17.600Z,100247.78
2022-09-24T20:43:45.563Z,100253.13
2022-09-24T20:46:32.373Z,100251.88
2022-09-24T20:49:00.227Z,100256.91
2022-09-24T20:51:33.709Z,100253.91
2022-09-24T20:54:01.235Z,100257.91
2022-09-24T20:56:30.643Z,100250.88
2022-09-24T20:58:57.878Z,100246.81
2022-09-24T21:01:25.031Z,100251.38
2022-09-24T21:03:52.891Z,100252.47
2022-09-24T21:06:23.072Z,100248.13
2022-09-24T21:08:49.968Z,100251.91
2022-09-24T21:11:22.692Z,100251.38
2022-09-24T21:13:52.244Z,100259.47
2022-09-24T21:16:24.429Z,100265.41
2022-09-24T21:18:54.423Z,100264.28
2022-09-24T21:21:24.150Z,100265.91
2022-09-24T21:23:53.345Z,100261.84
2022-09-24T21:26:31.168Z,100258.56
2022-09-24T21:29:08.207Z,100256.41
2022-09-24T21:31:35.980Z,100257.94
2022-09-24T21:34:03.525Z,100256.00
2022-09-24T21:36:32.397Z,100261.41
2022-09-24T21:39:09.088Z,100259.03
2022-09-24T21:41:40.290Z,100254.88
2022-09-24T21:44:09.137Z,100259.44
2022-09-24T21:46:35.856Z,100259.69
2022-09-24T21:49:02.542Z,100254.03
2022-09-24T21:51:31.199Z,100253.69
2022-09-24T21:54:01.141Z,100258.56
2022-09-24T21:56:28.905Z,100260.69
2022-09-24T21:58:55.910Z,100260.69
2022-09-24T22:01:28.266Z,100259.69
2022-09-24T22:03:56.808Z,100261.34
2022-09-24T22:06:27.165Z,100262.44
2022-09-24T22:08:56.090Z,100265.44
2022-09-24T22:11:23.349Z,100258.47
2022-09-24T22:13:49.819Z,100258.75
2022-09-24T22:16:16.382Z,100266.13
2022-09-24T22:18:42.783Z,100261.31
2022-09-24T22:21:12.391Z,100265.91
2022-09-24T22:23:40.089Z,100261.00
2022-09-24T22:26:09.066Z,100254.50
2022-09-24T22:28:38.040Z,100256.41
2022-09-24T22:31:11.081Z,100261.94
2022-09-24T22:33:56.783Z,100259.72
2022-09-24T22:36:23.447Z,100251.91
2022-09-24T22:38:53.325Z,100255.75
2022-09-24T22:41:19.836Z,100257.16
2022-09-24T22:43:46.375Z,100257.69
2022-09-24T22:46:14.351Z,100268.31
2022-09-24T22:48:40.881Z,100260.19
2022-09-24T22:51:08.714Z,100275.94
2022-09-24T22:53:36.987Z,100262.13
2022-09-24T22:56:11.222Z,100267.34
2022-09-24T22:58:41.313Z,100258.34
2022-09-24T23:01:14.472Z,100260.84
